Time;durP1;ratioP1;P1;durP2;ratioP2;P2;SDS_P1;SDS_P2;PMS_P1;PMS_P2;Temp;Humidity;BMP_temperature;BMP_pressure;BME280_temperature;BME280_humidity;BME280_pressure;Samples;Min_cycle;Max_cycle;Signal;HPM_P1;HPM_P2
2022/11/06 13:25:34;;;;;;;;;10.75;9.50;;;;;;;;5017204;28;51071;-49
2022/11/06 13:28:41;;;;;;;;;14.75;11.75;;;;;;;;5016947;28;51161;-45
2022/11/06 13:31:47;;;;;;;;;12.50;10.25;;;;;;;;5021891;28;51263;-46
2022/11/06 13:34:34;;;;;;;;;14.00;10.75;;;;;;;;5029654;28;51084;-47
2022/11/06 13:37:19;;;;;;;;;11.75;10.00;;;;;;;;5016783;28;50923;-45
2022/11/06 13:40:22;;;;;;;;;12.50;8.00;;;;;;;;5033426;28;51014;-49
2022/11/06 13:43:09;;;;;;;;;16.25;8.75;;;;;;;;5021315;28;51096;-48
2022/11/06 13:46:12;;;;;;;;;17.50;11.75;;;;;;;;5023304;28;51051;-46
2022/11/06 13:49:02;;;;;;;;;14.25;12.00;;;;;;;;5031553;28;51266;-47
2022/11/06 13:51:52;;;;;;;;;12.75;10.50;;;;;;;;5034395;28;51050;-47
2022/11/06 13:54:55;;;;;;;;;8.00;4.75;;;;;;;;5029877;28;51135;-49
2022/11/06 13:57:39;;;;;;;;;14.00;11.25;;;;;;;;5016306;28;51116;-48
2022/11/06 14:00:33;;;;;;;;;15.75;12.00;;;;;;;;5016061;28;51590;-49
2022/11/06 14:03:43;;;;;;;;;9.75;7.00;;;;;;;;5033443;28;51226;-46
2022/11/06 14:06:29;;;;;;;;;14.00;9.25;;;;;;;;5018192;28;50953;-48
2022/11/06 14:09:21;;;;;;;;;12.50;10.50;;;;;;;;5031046;28;51301;-45
2022/11/06 14:12:07;;;;;;;;;13.75;11.00;;;;;;;;5033778;28;51555;-49
2022/11/06 14:15:11;;;;;;;;;10.25;8.75;;;;;;;;5026292;28;51098;-47
2022/11/06 14:17:57;;;;;;;;;14.75;10.50;;;;;;;;5033088;28;51189;-45
2022/11/06 14:20:41;;;;;;;;;12.00;11.75;;;;;;;;5015698;28;51163;-49
2022/11/06 14:23:29;;;;;;;;;8.00;6.50;;;;;;;;5039195;28;51099;-46
2022/11/06 14:26:33;;;;;;;;;8.00;8.00;;;;;;;;5042942;28;51363;-46
2022/11/06 14:29:26;;;;;;;;;4.75;4.75;;;;;;;;5046564;28;51117;-50
2022/11/06 14:32:31;;;;;;;;;13.00;9.50;;;;;;;;5061106;28;51145;-47
2022/11/06 14:35:27;;;;;;;;;12.25;10.25;;;;;;;;5053237;28;51123;-50
2022/11/06 14:38:17;;;;;;;;;15.00;9.75;;;;;;;;5062640;28;51483;-49
2022/11/06 14:41:21;;;;;;;;;10.25;7.75;;;;;;;;5045902;28;50993;-48
2022/11/06 14:44:13;;;;;;;;;10.25;10.00;;;;;;;;5051336;28;51128;-48
2022/11/06 14:46:59;;;;;;;;;14.75;11.00;;;;;;;;5046324;28;51432;-53
2022/11/06 14:49:48;;;;;;;;;18.25;14.25;;;;;;;;5043550;28;51287;-50
2022/11/06 14:52:41;;;;;;;;;14.25;12.50;;;;;;;;5046404;28;51435;-49
2022/11/06 14:55:31;;;;;;;;;14.00;12.00;;;;;;;;5045186;28;52002;-47
2022/11/06 14:58:21;;;;;;;;;13.25;11.75;;;;;;;;5043796;28;51108;-49
2022/11/06 15:01:09;;;;;;;;;10.50;10.50;;;;;;;;5047195;28;51081;-46
2022/11/06 15:03:58;;;;;;;;;13.50;10.25;;;;;;;;5047405;28;50660;-50
2022/11/06 15:06:46;;;;;;;;;11.00;10.25;;;;;;;;5045622;28;51873;-50
2022/11/06 15:09:36;;;;;;;;;14.50;11.75;;;;;;;;5044166;28;51194;-48
2022/11/06 15:12:40;;;;;;;;;13.50;12.00;;;;;;;;5049093;28;51089;-48
2022/11/06 15:15:26;;;;;;;;;15.00;10.00;;;;;;;;5043629;28;51287;-48
2022/11/06 15:18:12;;;;;;;;;16.00;11.00;;;;;;;;5048867;28;51431;-49
2022/11/06 15:20:59;;;;;;;;;12.25;10.50;;;;;;;;5044859;28;51184;-45
2022/11/06 15:23:53;;;;;;;;;17.50;10.75;;;;;;;;5047029;28;51120;-47
2022/11/06 15:26:43;;;;;;;;;13.25;10.50;;;;;;;;5047897;28;51341;-50
2022/11/06 15:29:31;;;;;;;;;17.50;12.00;;;;;;;;5047475;28;51171;-50
2022/11/06 15:32:20;;;;;;;;;13.75;11.50;;;;;;;;5045102;28;51018;-45
2022/11/06 15:35:07;;;;;;;;;15.75;12.50;;;;;;;;5047129;28;51196;-51
2022/11/06 15:37:54;;;;;;;;;16.75;12.75;;;;;;;;5041354;28;51225;-49
2022/11/06 15:40:40;;;;;;;;;14.75;9.25;;;;;;;;5041179;28;51268;-48
2022/11/06 15:43:29;;;;;;;;;8.50;7.25;;;;;;;;5045106;28;51468;-46
2022/11/06 15:46:16;;;;;;;;;14.00;10.00;;;;;;;;5047424;28;51169;-46
2022/11/06 15:49:17;;;;;;;;;11.75;10.75;;;;;;;;5043827;28;51169;-49
2022/11/06 15:52:02;;;;;;;;;15.00;12.75;;;;;;;;5047789;28;51089;-45
2022/11/06 15:54:48;;;;;;;;;19.50;14.75;;;;;;;;5045403;28;51099;-46
2022/11/06 15:57:32;;;;;;;;;13.00;11.50;;;;;;;;5048990;28;51160;-49
2022/11/06 16:00:17;;;;;;;;;16.00;10.00;;;;;;;;5049009;28;52760;-46
2022/11/06 16:03:02;;;;;;;;;16.00;11.00;;;;;;;;5046388;28;51489;-46
2022/11/06 16:05:47;;;;;;;;;17.75;14.00;;;;;;;;5041074;28;51227;-47
2022/11/06 16:08:31;;;;;;;;;15.00;12.25;;;;;;;;5047888;28;51104;-48
2022/11/06 16:11:17;;;;;;;;;20.50;16.25;;;;;;;;5045280;28;51553;-48
2022/11/06 16:14:01;;;;;;;;;16.25;12.75;;;;;;;;5039076;28;51180;-47
2022/11/06 16:16:47;;;;;;;;;14.75;11.00;;;;;;;;5044064;28;51536;-47
2022/11/06 16:19:34;;;;;;;;;13.00;11.75;;;;;;;;5041840;28;51381;-50
2022/11/06 16:22:21;;;;;;;;;16.00;12.50;;;;;;;;5042652;28;51285;-46
2022/11/06 16:25:06;;;;;;;;;15.75;11.00;;;;;;;;5042934;28;51254;-49
2022/11/06 16:27:50;;;;;;;;;15.75;12.25;;;;;;;;5039338;28;51068;-47
2022/11/06 16:30:34;;;;;;;;;39.25;31.75;;;;;;;;5044811;28;51254;-45
2022/11/06 16:33:25;;;;;;;;;13.25;13.25;;;;;;;;5041785;28;51062;-50
2022/11/06 16:36:12;;;;;;;;;10.50;10.00;;;;;;;;5040992;28;51109;-48
2022/11/06 16:39:29;;;;;;;;;12.50;11.50;;;;;;;;5040178;28;51159;-48
2022/11/06 16:42:24;;;;;;;;;19.00;12.25;;;;;;;;5017149;28;51193;-46
2022/11/06 16:45:18;;;;;;;;;13.00;12.25;;;;;;;;5039502;28;51161;-48
2022/11/06 16:48:05;;;;;;;;;16.50;13.75;;;;;;;;5038555;28;51137;-48
2022/11/06 16:50:53;;;;;;;;;30.75;24.25;;;;;;;;5048193;28;51022;-49
2022/11/06 16:53:50;;;;;;;;;37.75;29.75;;;;;;;;5040472;28;51088;-46
2022/11/06 16:56:34;;;;;;;;;24.50;22.50;;;;;;;;5046357;28;51215;-48
2022/11/06 16:59:22;;;;;;;;;16.50;15.75;;;;;;;;5046041;28;51232;-45
2022/11/06 17:02:18;;;;;;;;;27.75;20.50;;;;;;;;5040580;28;51183;-50
2022/11/06 17:05:22;;;;;;;;;19.75;13.00;;;;;;;;5039055;28;51181;-48
2022/11/06 17:08:25;;;;;;;;;16.75;11.75;;;;;;;;5051646;28;51568;-44
2022/11/06 17:11:12;;;;;;;;;14.00;11.25;;;;;;;;5050083;28;51278;-49
2022/11/06 17:13:56;;;;;;;;;14.75;12.00;;;;;;;;5039306;28;51156;-50
2022/11/06 17:16:45;;;;;;;;;4.75;0.00;;;;;;;;5055037;28;51210;-50
2022/11/06 17:19:30;;;;;;;;;16.75;9.50;;;;;;;;5059311;28;51170;-46
2022/11/06 17:22:14;;;;;;;;;10.00;10.00;;;;;;;;5043744;28;51215;-48
2022/11/06 17:24:58;;;;;;;;;13.50;11.00;;;;;;;;5045462;28;51515;-49
2022/11/06 17:27:43;;;;;;;;;8.75;4.25;;;;;;;;5045377;28;51219;-44
2022/11/06 17:30:28;;;;;;;;;15.50;13.00;;;;;;;;5043829;28;51171;-48
2022/11/06 17:33:12;;;;;;;;;15.75;11.75;;;;;;;;5043389;28;51460;-47
2022/11/06 17:35:57;;;;;;;;;10.50;8.75;;;;;;;;5048222;28;51341;-46
2022/11/06 17:38:41;;;;;;;;;14.75;11.00;;;;;;;;5048103;28;51111;-45
2022/11/06 17:41:28;;;;;;;;;15.50;11.75;;;;;;;;5044401;28;51041;-45
2022/11/06 17:44:13;;;;;;;;;10.75;9.25;;;;;;;;5041500;28;51143;-45
2022/11/06 17:46:57;;;;;;;;;11.00;9.25;;;;;;;;5036823;28;51064;-45
2022/11/06 17:49:42;;;;;;;;;18.00;14.25;;;;;;;;5039460;28;51175;-46
2022/11/06 17:52:26;;;;;;;;;14.25;11.50;;;;;;;;5039850;28;51119;-50
2022/11/06 17:55:11;;;;;;;;;11.75;10.50;;;;;;;;5040314;28;51372;-47
2022/11/06 17:57:55;;;;;;;;;12.25;9.75;;;;;;;;5045009;28;51433;-48
2022/11/06 18:00:40;;;;;;;;;15.00;10.75;;;;;;;;5045237;28;51536;-46
2022/11/06 18:03:24;;;;;;;;;15.00;12.75;;;;;;;;5042203;28;51084;-47
2022/11/06 18:06:09;;;;;;;;;12.75;12.75;;;;;;;;5054244;28;50984;-48
2022/11/06 18:08:54;;;;;;;;;14.00;10.75;;;;;;;;5044850;28;52237;-49
2022/11/06 18:11:38;;;;;;;;;16.00;13.00;;;;;;;;5040665;28;51260;-50
2022/11/06 18:14:24;;;;;;;;;12.00;11.50;;;;;;;;5053581;28;51385;-46
2022/11/06 18:17:08;;;;;;;;;15.50;12.25;;;;;;;;5050312;28;51065;-48
2022/11/06 18:19:53;;;;;;;;;15.00;11.75;;;;;;;;5047386;28;51171;-47
2022/11/06 18:22:37;;;;;;;;;14.25;10.75;;;;;;;;5045840;28;51156;-46
2022/11/06 18:25:21;;;;;;;;;14.00;10.00;;;;;;;;5041875;28;51126;-46
2022/11/06 18:28:06;;;;;;;;;15.75;12.00;;;;;;;;5053352;28;51063;-48
2022/11/06 18:30:51;;;;;;;;;13.75;10.75;;;;;;;;5048930;28;51073;-50
2022/11/06 18:33:35;;;;;;;;;15.75;12.25;;;;;;;;5043453;28;51176;-47
2022/11/06 18:36:20;;;;;;;;;16.25;12.75;;;;;;;;5043326;28;51101;-48
2022/11/06 18:39:04;;;;;;;;;22.75;13.50;;;;;;;;5043183;28;51175;-51
2022/11/06 18:41:49;;;;;;;;;16.50;13.50;;;;;;;;5051046;28;51184;-51
2022/11/06 18:44:36;;;;;;;;;19.00;13.25;;;;;;;;5045138;28;51108;-51
2022/11/06 18:47:20;;;;;;;;;24.00;20.75;;;;;;;;5044437;28;51181;-51
2022/11/06 18:50:05;;;;;;;;;16.50;13.75;;;;;;;;5054172;28;51559;-49
2022/11/06 18:52:49;;;;;;;;;13.75;13.75;;;;;;;;5052899;28;51144;-49
2022/11/06 18:55:33;;;;;;;;;12.25;11.00;;;;;;;;5048823;28;51251;-46
2022/11/06 18:58:18;;;;;;;;;11.75;10.25;;;;;;;;5048458;28;51075;-51
2022/11/06 19:01:04;;;;;;;;;13.00;11.25;;;;;;;;5044593;28;51251;-48
2022/11/06 19:03:49;;;;;;;;;24.75;22.75;;;;;;;;5049701;28;51199;-50
2022/11/06 19:06:33;;;;;;;;;14.50;11.00;;;;;;;;5044716;28;51382;-54
2022/11/06 19:09:17;;;;;;;;;20.75;15.75;;;;;;;;5046574;28;51117;-48
2022/11/06 19:12:01;;;;;;;;;15.75;11.75;;;;;;;;5049064;28;51255;-47
2022/11/06 19:14:46;;;;;;;;;10.25;8.00;;;;;;;;5032796;28;51175;-50
2022/11/06 19:17:30;;;;;;;;;15.00;11.75;;;;;;;;5045628;28;51141;-48
2022/11/06 19:20:15;;;;;;;;;15.00;13.50;;;;;;;;5050063;28;51184;-49
2022/11/06 19:23:00;;;;;;;;;12.00;7.50;;;;;;;;5045931;28;52092;-47
2022/11/06 19:25:44;;;;;;;;;16.75;13.00;;;;;;;;5045799;28;51353;-52
2022/11/06 19:28:28;;;;;;;;;14.50;11.75;;;;;;;;5044827;28;51151;-50
2022/11/06 19:31:13;;;;;;;;;11.75;10.75;;;;;;;;5046021;28;51058;-47
2022/11/06 19:33:58;;;;;;;;;22.00;16.75;;;;;;;;5047384;28;51138;-44
2022/11/06 19:36:42;;;;;;;;;13.75;9.50;;;;;;;;5043896;28;51564;-52
2022/11/06 19:39:27;;;;;;;;;14.75;11.00;;;;;;;;5049088;28;51257;-53
2022/11/06 19:42:11;;;;;;;;;12.50;10.25;;;;;;;;5048687;28;51154;-52
2022/11/06 19:44:55;;;;;;;;;16.75;13.00;;;;;;;;5044157;28;51194;-55
2022/11/06 19:47:39;;;;;;;;;13.25;12.75;;;;;;;;5041391;28;51021;-49
2022/11/06 19:50:24;;;;;;;;;9.75;9.25;;;;;;;;5046533;28;51220;-51
2022/11/06 19:53:08;;;;;;;;;13.50;11.00;;;;;;;;5039084;28;51480;-50
2022/11/06 19:55:53;;;;;;;;;13.00;10.25;;;;;;;;5044212;28;51097;-50
2022/11/06 19:58:37;;;;;;;;;15.00;12.00;;;;;;;;5048547;28;51188;-50
2022/11/06 20:01:21;;;;;;;;;14.75;13.25;;;;;;;;5043491;28;51141;-51
2022/11/06 20:04:06;;;;;;;;;11.00;10.00;;;;;;;;5052672;28;51236;-54
2022/11/06 20:06:51;;;;;;;;;16.00;12.75;;;;;;;;5039661;28;51196;-54
2022/11/06 20:09:35;;;;;;;;;13.25;11.75;;;;;;;;5040327;28;51093;-50
2022/11/06 20:12:19;;;;;;;;;15.50;12.50;;;;;;;;5039132;28;52274;-52
2022/11/06 20:15:04;;;;;;;;;15.00;12.25;;;;;;;;5042894;28;51081;-51
2022/11/06 20:17:48;;;;;;;;;12.00;11.50;;;;;;;;5045636;28;51179;-49
2022/11/06 20:20:33;;;;;;;;;17.50;13.50;;;;;;;;5040135;28;51175;-54
2022/11/06 20:23:18;;;;;;;;;14.75;12.00;;;;;;;;5040779;28;51174;-51
2022/11/06 20:26:03;;;;;;;;;17.50;12.00;;;;;;;;5041447;28;51188;-49
2022/11/06 20:28:48;;;;;;;;;15.25;10.75;;;;;;;;5045443;28;51722;-48
2022/11/06 20:31:32;;;;;;;;;14.00;12.00;;;;;;;;5035714;28;51146;-49
2022/11/06 20:34:17;;;;;;;;;14.50;11.25;;;;;;;;5043237;28;51231;-53
2022/11/06 20:37:01;;;;;;;;;15.50;11.00;;;;;;;;5043904;28;51365;-52
2022/11/06 20:39:46;;;;;;;;;14.25;11.75;;;;;;;;5038457;28;51770;-50
2022/11/06 20:42:31;;;;;;;;;17.25;12.50;;;;;;;;5042571;28;51707;-51
2022/11/06 20:45:15;;;;;;;;;14.25;8.75;;;;;;;;5038116;28;51054;-50
2022/11/06 20:48:00;;;;;;;;;17.00;12.25;;;;;;;;5042910;28;51239;-51
2022/11/06 20:50:54;;;;;;;;;13.75;8.50;;;;;;;;5031775;28;51592;-50
2022/11/06 20:53:39;;;;;;;;;15.25;10.50;;;;;;;;5025569;28;51421;-52
2022/11/06 20:56:25;;;;;;;;;14.50;10.50;;;;;;;;5044862;28;51128;-53
2022/11/06 20:59:09;;;;;;;;;13.00;10.50;;;;;;;;5045215;28;51108;-50
2022/11/06 21:01:54;;;;;;;;;13.00;11.25;;;;;;;;5043138;28;51348;-51
2022/11/06 21:04:38;;;;;;;;;14.75;11.50;;;;;;;;5040160;28;51797;-50
2022/11/06 21:07:22;;;;;;;;;9.75;9.75;;;;;;;;5041136;28;51351;-53
2022/11/06 21:10:08;;;;;;;;;18.75;12.00;;;;;;;;5033460;28;51159;-52
2022/11/06 21:12:53;;;;;;;;;12.50;9.50;;;;;;;;5049902;28;51429;-49
2022/11/06 21:15:37;;;;;;;;;17.25;8.50;;;;;;;;5043120;28;51430;-49
2022/11/06 21:18:22;;;;;;;;;14.75;10.75;;;;;;;;5046795;28;51432;-51
2022/11/06 21:21:08;;;;;;;;;12.00;12.00;;;;;;;;5043844;28;51238;-49
2022/11/06 21:23:53;;;;;;;;;15.00;10.25;;;;;;;;5045094;28;52348;-50
2022/11/06 21:26:37;;;;;;;;;12.75;9.00;;;;;;;;5047656;28;51396;-49
2022/11/06 21:29:22;;;;;;;;;14.00;9.75;;;;;;;;5044704;28;51174;-54
2022/11/06 21:32:07;;;;;;;;;12.50;10.50;;;;;;;;5047925;28;51252;-51
2022/11/06 21:34:51;;;;;;;;;11.25;9.00;;;;;;;;5061819;28;51126;-49
2022/11/06 21:37:36;;;;;;;;;17.50;12.25;;;;;;;;5058290;28;51117;-52
2022/11/06 21:40:20;;;;;;;;;10.75;10.25;;;;;;;;5050515;28;51133;-51
2022/11/06 21:43:05;;;;;;;;;16.50;11.75;;;;;;;;5045683;28;51329;-48
2022/11/06 21:45:49;;;;;;;;;14.25;12.50;;;;;;;;5062527;28;51068;-50
2022/11/06 21:48:34;;;;;;;;;20.25;11.50;;;;;;;;5053093;28;51106;-48
2022/11/06 21:51:20;;;;;;;;;9.50;8.00;;;;;;;;5061087;28;51497;-53
2022/11/06 21:57:07;;;;;;;;;0.50;0.50;;;;;;;;5061850;28;51096;-50
2022/11/06 21:59:51;;;;;;;;;12.50;10.00;;;;;;;;5059869;28;51198;-52
2022/11/06 22:02:36;;;;;;;;;13.25;12.50;;;;;;;;5062772;28;51324;-52
2022/11/06 22:05:21;;;;;;;;;15.50;11.00;;;;;;;;5061734;28;51087;-48
2022/11/06 22:08:06;;;;;;;;;21.00;12.00;;;;;;;;5062951;28;51159;-48
2022/11/06 22:10:50;;;;;;;;;11.25;11.25;;;;;;;;5062579;28;51053;-50
2022/11/06 22:13:34;;;;;;;;;12.75;11.00;;;;;;;;5047668;28;51040;-51
2022/11/06 22:16:21;;;;;;;;;15.25;12.25;;;;;;;;5042745;28;51540;-48
2022/11/06 22:19:06;;;;;;;;;12.25;11.00;;;;;;;;5058259;28;51158;-51
2022/11/06 22:21:53;;;;;;;;;18.25;13.50;;;;;;;;5048697;28;51615;-51
2022/11/06 22:24:37;;;;;;;;;18.00;13.00;;;;;;;;5010151;28;51230;-52
2022/11/06 22:27:21;;;;;;;;;14.25;11.50;;;;;;;;5003668;28;51076;-49
2022/11/06 22:30:06;;;;;;;;;16.25;10.50;;;;;;;;5005990;28;51397;-50
2022/11/06 22:32:50;;;;;;;;;15.25;10.00;;;;;;;;5005812;28;51537;-53
2022/11/06 22:35:34;;;;;;;;;13.75;12.50;;;;;;;;5002700;28;51066;-52
2022/11/06 22:38:19;;;;;;;;;12.75;11.75;;;;;;;;5011608;28;52097;-51
2022/11/06 22:41:05;;;;;;;;;11.75;11.25;;;;;;;;5010715;28;52844;-49
2022/11/06 22:43:49;;;;;;;;;13.25;10.75;;;;;;;;5009933;28;51075;-50
2022/11/06 22:46:33;;;;;;;;;12.75;9.75;;;;;;;;5007415;28;51170;-51
2022/11/06 22:49:18;;;;;;;;;13.50;13.50;;;;;;;;5008402;28;51182;-47
2022/11/06 22:52:02;;;;;;;;;12.50;10.25;;;;;;;;5005460;28;51626;-51
2022/11/06 22:54:46;;;;;;;;;16.00;12.25;;;;;;;;5001680;28;52220;-53
2022/11/06 22:57:31;;;;;;;;;15.50;13.25;;;;;;;;5006926;28;52049;-50
2022/11/06 23:00:15;;;;;;;;;14.00;10.50;;;;;;;;5010366;28;51217;-48
2022/11/06 23:02:59;;;;;;;;;15.25;12.00;;;;;;;;5006916;28;51143;-50
2022/11/06 23:05:44;;;;;;;;;15.25;12.25;;;;;;;;5006908;28;51044;-50
2022/11/06 23:08:28;;;;;;;;;16.25;11.50;;;;;;;;5005503;28;51462;-52
2022/11/06 23:11:13;;;;;;;;;15.00;13.50;;;;;;;;5003290;28;51897;-52
2022/11/06 23:14:01;;;;;;;;;15.50;13.00;;;;;;;;5005429;28;51139;-50
2022/11/06 23:16:57;;;;;;;;;10.00;7.75;;;;;;;;5001993;28;51484;-51
2022/11/06 23:19:42;;;;;;;;;20.00;11.00;;;;;;;;5008472;28;51137;-49
2022/11/06 23:22:35;;;;;;;;;12.00;10.25;;;;;;;;5014164;28;51150;-49
2022/11/06 23:25:19;;;;;;;;;13.75;12.50;;;;;;;;5047087;28;51139;-50
2022/11/06 23:28:04;;;;;;;;;15.25;13.00;;;;;;;;5044775;28;51211;-50
2022/11/06 23:30:48;;;;;;;;;17.50;11.75;;;;;;;;5043523;28;51441;-54
2022/11/06 23:33:33;;;;;;;;;15.50;12.25;;;;;;;;5027696;28;51151;-52
2022/11/06 23:36:17;;;;;;;;;13.75;11.00;;;;;;;;5047774;28;51053;-49
2022/11/06 23:39:01;;;;;;;;;6.75;6.75;;;;;;;;5041526;28;51119;-51
2022/11/06 23:41:46;;;;;;;;;14.75;11.75;;;;;;;;5047749;28;51543;-54
2022/11/06 23:47:53;;;;;;;;;16.75;13.25;;;;;;;;4958376;28;51542;-51
2022/11/06 23:50:37;;;;;;;;;12.50;11.25;;;;;;;;4956363;28;51073;-49
2022/11/06 23:53:21;;;;;;;;;13.25;12.00;;;;;;;;5030077;28;51122;-53
2022/11/06 23:56:07;;;;;;;;;15.75;11.75;;;;;;;;5041570;28;51159;-52
2022/11/06 23:58:50;;;;;;;;;14.00;11.00;;;;;;;;5041138;28;52050;-52
